sensor_id;sensor_type;location;lat;lon;timestamp;pressure;altitude;pressure_sealevel;temperature;humidity
43818;BME280;29868;47.360;18.984;2023-04-27T05:57:24;100725.75;;;20.84;35.16
43818;BME280;29868;47.360;18.984;2023-04-27T05:59:50;100730.78;;;20.52;33.71
43818;BME280;29868;47.360;18.984;2023-04-27T06:02:16;100730.94;;;22.02;32.78
43818;BME280;29868;47.360;18.984;2023-04-27T06:04:42;100734.56;;;21.62;32.82
43818;BME280;29868;47.360;18.984;2023-04-27T06:07:08;100741.00;;;21.88;31.87
43818;BME280;29868;47.360;18.984;2023-04-27T06:09:34;100740.72;;;20.84;32.11
43818;BME280;29868;47.360;18.984;2023-04-27T06:12:01;100749.19;;;21.79;31.96
43818;BME280;29868;47.360;18.984;2023-04-27T06:14:27;100753.63;;;22.47;30.34
43818;BME280;29868;47.360;18.984;2023-04-27T06:16:52;100749.41;;;19.93;32.55
43818;BME280;29868;47.360;18.984;2023-04-27T06:19:17;100751.75;;;22.18;30.20
43818;BME280;29868;47.360;18.984;2023-04-27T06:21:43;100753.59;;;20.99;30.95
43818;BME280;29868;47.360;18.984;2023-04-27T06:24:08;100759.16;;;20.37;32.81
43818;BME280;29868;47.360;18.984;2023-04-27T06:26:34;100760.38;;;21.51;30.14
43818;BME280;29868;47.360;18.984;2023-04-27T06:28:59;100753.75;;;21.72;31.42
43818;BME280;29868;47.360;18.984;2023-04-27T06:31:25;100761.59;;;20.96;31.30
43818;BME280;29868;47.360;18.984;2023-04-27T06:33:51;100758.44;;;20.29;32.83
43818;BME280;29868;47.360;18.984;2023-04-27T06:36:16;100755.72;;;19.23;33.55
43818;BME280;29868;47.360;18.984;2023-04-27T06:38:42;100751.38;;;21.20;31.11
43818;BME280;29868;47.360;18.984;2023-04-27T06:41:07;100765.25;;;20.42;31.65
43818;BME280;29868;47.360;18.984;2023-04-27T06:43:33;100757.28;;;19.95;34.28
43818;BME280;29868;47.360;18.984;2023-04-27T06:45:58;100757.09;;;20.05;32.54
43818;BME280;29868;47.360;18.984;2023-04-27T06:48:23;100760.75;;;18.67;33.98
43818;BME280;29868;47.360;18.984;2023-04-27T06:50:49;100760.22;;;18.33;35.20
43818;BME280;29868;47.360;18.984;2023-04-27T06:53:15;100748.69;;;17.38;34.51
43818;BME280;29868;47.360;18.984;2023-04-27T06:55:41;100746.94;;;17.39;36.13
43818;BME280;29868;47.360;18.984;2023-04-27T06:58:07;100740.38;;;16.03;35.54
43818;BME280;29868;47.360;18.984;2023-04-27T07:00:33;100745.59;;;15.75;37.42
43818;BME280;29868;47.360;18.984;2023-04-27T07:02:58;100745.38;;;14.96;36.92
43818;BME280;29868;47.360;18.984;2023-04-27T07:05:24;100753.63;;;14.14;39.09
43818;BME280;29868;47.360;18.984;2023-04-27T07:07:49;100754.28;;;13.86;41.08
43818;BME280;29868;47.360;18.984;2023-04-27T07:10:14;100752.47;;;13.81;41.76
43818;BME280;29868;47.360;18.984;2023-04-27T07:12:41;100749.84;;;13.76;43.64
43818;BME280;29868;47.360;18.984;2023-04-27T07:15:07;100750.25;;;14.28;43.11
43818;BME280;29868;47.360;18.984;2023-04-27T07:17:33;100752.47;;;12.99;42.93
43818;BME280;29868;47.360;18.984;2023-04-27T07:19:59;100755.28;;;13.15;45.68
43818;BME280;29868;47.360;18.984;2023-04-27T07:22:25;100751.50;;;13.71;45.36
43818;BME280;29868;47.360;18.984;2023-04-27T07:24:51;100752.53;;;13.88;44.60
43818;BME280;29868;47.360;18.984;2023-04-27T07:27:16;100755.47;;;14.30;45.75
43818;BME280;29868;47.360;18.984;2023-04-27T07:29:42;100758.84;;;14.14;46.39
43818;BME280;29868;47.360;18.984;2023-04-27T07:32:07;100757.69;;;13.81;45.46
43818;BME280;29868;47.360;18.984;2023-04-27T07:34:33;100761.00;;;13.60;46.29
43818;BME280;29868;47.360;18.984;2023-04-27T07:36:59;100757.97;;;14.13;49.82
43818;BME280;29868;47.360;18.984;2023-04-27T07:39:25;100758.88;;;14.18;45.35
43818;BME280;29868;47.360;18.984;2023-04-27T07:41:51;100765.03;;;14.28;41.05
43818;BME280;29868;47.360;18.984;2023-04-27T07:44:17;100760.78;;;14.41;37.12
43818;BME280;29868;47.360;18.984;2023-04-27T07:46:43;100762.00;;;13.74;37.75
43818;BME280;29868;47.360;18.984;2023-04-27T07:49:08;100760.56;;;14.10;36.96
43818;BME280;29868;47.360;18.984;2023-04-27T07:51:34;100756.38;;;14.35;36.99
43818;BME280;29868;47.360;18.984;2023-04-27T07:54:00;100756.34;;;14.30;37.58
43818;BME280;29868;47.360;18.984;2023-04-27T07:56:26;100767.63;;;14.23;36.55
43818;BME280;29868;47.360;18.984;2023-04-27T07:58:52;100763.19;;;14.11;36.30
43818;BME280;29868;47.360;18.984;2023-04-27T08:01:17;100759.94;;;14.45;37.20
43818;BME280;29868;47.360;18.984;2023-04-27T08:03:43;100766.50;;;15.60;39.59
43818;BME280;29868;47.360;18.984;2023-04-27T08:06:08;100760.44;;;15.78;36.69
43818;BME280;29868;47.360;18.984;2023-04-27T08:08:33;100762.00;;;15.01;40.27
43818;BME280;29868;47.360;18.984;2023-04-27T08:10:59;100761.19;;;15.23;37.20
43818;BME280;29868;47.360;18.984;2023-04-27T08:13:24;100762.94;;;15.23;35.53
43818;BME280;29868;47.360;18.984;2023-04-27T08:15:50;100764.44;;;14.64;34.97
43818;BME280;29868;47.360;18.984;2023-04-27T08:18:16;100762.69;;;14.69;35.64
43818;BME280;29868;47.360;18.984;2023-04-27T08:20:42;100775.09;;;15.05;34.29
43818;BME280;29868;47.360;18.984;2023-04-27T08:23:08;100768.09;;;15.03;34.44
43818;BME280;29868;47.360;18.984;2023-04-27T08:25:35;100768.25;;;15.58;34.15
43818;BME280;29868;47.360;18.984;2023-04-27T08:28:00;100764.81;;;15.65;34.07
43818;BME280;29868;47.360;18.984;2023-04-27T08:30:26;100764.63;;;15.10;35.35
43818;BME280;29868;47.360;18.984;2023-04-27T08:32:51;100774.75;;;14.47;33.11
43818;BME280;29868;47.360;18.984;2023-04-27T08:35:19;100776.41;;;14.34;33.73
43818;BME280;29868;47.360;18.984;2023-04-27T08:37:45;100771.22;;;14.41;33.87
43818;BME280;29868;47.360;18.984;2023-04-27T08:40:10;100767.69;;;14.32;34.22
43818;BME280;29868;47.360;18.984;2023-04-27T08:42:37;100763.16;;;14.07;35.17
43818;BME280;29868;47.360;18.984;2023-04-27T08:45:06;100763.09;;;14.01;35.65
43818;BME280;29868;47.360;18.984;2023-04-27T08:47:32;100764.63;;;13.76;35.26
43818;BME280;29868;47.360;18.984;2023-04-27T08:49:58;100760.03;;;14.55;35.62
43818;BME280;29868;47.360;18.984;2023-04-27T08:52:23;100765.06;;;14.29;34.37
43818;BME280;29868;47.360;18.984;2023-04-27T08:54:48;100764.09;;;14.20;35.57
43818;BME280;29868;47.360;18.984;2023-04-27T08:57:14;100759.94;;;14.48;34.80
43818;BME280;29868;47.360;18.984;2023-04-27T08:59:41;100757.53;;;14.78;34.96
43818;BME280;29868;47.360;18.984;2023-04-27T09:02:20;100755.16;;;15.55;34.83
43818;BME280;29868;47.360;18.984;2023-04-27T09:04:46;100752.59;;;15.70;33.83
43818;BME280;29868;47.360;18.984;2023-04-27T09:07:12;100751.72;;;16.13;36.41
43818;BME280;29868;47.360;18.984;2023-04-27T09:09:37;100751.56;;;16.94;34.36
43818;BME280;29868;47.360;18.984;2023-04-27T09:12:18;100747.00;;;17.26;36.43
43818;BME280;29868;47.360;18.984;2023-04-27T09:15:01;100754.28;;;16.36;32.16
43818;BME280;29868;47.360;18.984;2023-04-27T09:17:30;100749.94;;;16.38;33.36
43818;BME280;29868;47.360;18.984;2023-04-27T09:20:09;100742.84;;;16.84;33.06
43818;BME280;29868;47.360;18.984;2023-04-27T09:22:46;100741.84;;;17.08;34.22
43818;BME280;29868;47.360;18.984;2023-04-27T09:25:31;100741.97;;;16.84;34.53
43818;BME280;29868;47.360;18.984;2023-04-27T09:27:58;100740.38;;;16.21;35.51
43818;BME280;29868;47.360;18.984;2023-04-27T09:30:24;100739.44;;;15.58;32.69
43818;BME280;29868;47.360;18.984;2023-04-27T09:32:55;100742.75;;;14.88;33.30
43818;BME280;29868;47.360;18.984;2023-04-27T09:35:26;100734.16;;;15.29;35.62
43818;BME280;29868;47.360;18.984;2023-04-27T09:37:52;100726.41;;;15.78;32.54
43818;BME280;29868;47.360;18.984;2023-04-27T09:40:28;100728.13;;;16.10;32.22
43818;BME280;29868;47.360;18.984;2023-04-27T09:42:56;100719.19;;;16.92;35.78
43818;BME280;29868;47.360;18.984;2023-04-27T09:45:27;100719.31;;;16.49;32.44
43818;BME280;29868;47.360;18.984;2023-04-27T09:47:52;100714.13;;;16.24;33.33
43818;BME280;29868;47.360;18.984;2023-04-27T09:50:18;100712.28;;;16.63;35.75
43818;BME280;29868;47.360;18.984;2023-04-27T09:52:45;100710.41;;;17.02;33.78
43818;BME280;29868;47.360;18.984;2023-04-27T09:55:15;100696.91;;;17.56;34.75
43818;BME280;29868;47.360;18.984;2023-04-27T09:58:23;100707.22;;;17.83;32.13
43818;BME280;29868;47.360;18.984;2023-04-27T10:04:01;100703.63;;;16.30;30.21
43818;BME280;29868;47.360;18.984;2023-04-27T10:06:57;100700.03;;;16.74;32.34
43818;BME280;29868;47.360;18.984;2023-04-27T10:09:23;100702.81;;;15.82;31.55
43818;BME280;29868;47.360;18.984;2023-04-27T10:11:51;100704.53;;;15.64;32.44
43818;BME280;29868;47.360;18.984;2023-04-27T10:14:18;100686.13;;;16.48;33.31
43818;BME280;29868;47.360;18.984;2023-04-27T10:16:45;100705.44;;;16.04;31.41
43818;BME280;29868;47.360;18.984;2023-04-27T10:19:11;100701.81;;;16.60;32.01
43818;BME280;29868;47.360;18.984;2023-04-27T10:21:38;100688.25;;;17.41;30.51
43818;BME280;29868;47.360;18.984;2023-04-27T10:24:14;100689.94;;;17.50;31.10
43818;BME280;29868;47.360;18.984;2023-04-27T10:26:45;100691.25;;;16.69;32.30
43818;BME280;29868;47.360;18.984;2023-04-27T10:29:10;100699.31;;;15.62;32.70
43818;BME280;29868;47.360;18.984;2023-04-27T10:31:44;100694.91;;;15.30;32.28
43818;BME280;29868;47.360;18.984;2023-04-27T10:34:16;100697.50;;;15.26;32.47
43818;BME280;29868;47.360;18.984;2023-04-27T10:36:41;100707.97;;;15.20;32.48
43818;BME280;29868;47.360;18.984;2023-04-27T10:39:32;100692.31;;;15.55;34.98
43818;BME280;29868;47.360;18.984;2023-04-27T10:41:58;100689.72;;;16.01;32.85
43818;BME280;29868;47.360;18.984;2023-04-27T10:44:28;100693.19;;;16.12;31.39
43818;BME280;29868;47.360;18.984;2023-04-27T10:46:55;100687.06;;;15.52;33.36
43818;BME280;29868;47.360;18.984;2023-04-27T10:49:21;100692.31;;;16.01;31.39
43818;BME280;29868;47.360;18.984;2023-04-27T10:51:49;100698.41;;;16.14;31.21
43818;BME280;29868;47.360;18.984;2023-04-27T10:54:15;100678.78;;;17.22;33.40
43818;BME280;29868;47.360;18.984;2023-04-27T10:56:41;100683.03;;;17.43;31.63
43818;BME280;29868;47.360;18.984;2023-04-27T10:59:07;100686.78;;;17.05;31.35
43818;BME280;29868;47.360;18.984;2023-04-27T11:01:33;100678.16;;;16.77;32.54
43818;BME280;29868;47.360;18.984;2023-04-27T11:03:59;100691.41;;;16.17;32.59
43818;BME280;29868;47.360;18.984;2023-04-27T11:06:26;100685.31;;;15.42;33.19
43818;BME280;29868;47.360;18.984;2023-04-27T11:08:55;100680.97;;;15.62;32.44
43818;BME280;29868;47.360;18.984;2023-04-27T11:11:21;100679.22;;;15.46;34.03
43818;BME280;29868;47.360;18.984;2023-04-27T11:13:50;100690.59;;;15.94;33.76
43818;BME280;29868;47.360;18.984;2023-04-27T11:16:17;100682.66;;;16.34;33.28
43818;BME280;29868;47.360;18.984;2023-04-27T11:18:44;100682.69;;;16.09;31.87
43818;BME280;29868;47.360;18.984;2023-04-27T11:21:17;100683.59;;;15.93;32.21
43818;BME280;29868;47.360;18.984;2023-04-27T11:23:44;100687.06;;;16.05;32.60
43818;BME280;29868;47.360;18.984;2023-04-27T11:26:17;100677.47;;;16.21;32.52
43818;BME280;29868;47.360;18.984;2023-04-27T11:29:05;100674.69;;;16.75;34.75
43818;BME280;29868;47.360;18.984;2023-04-27T11:31:45;100685.97;;;16.85;31.72
43818;BME280;29868;47.360;18.984;2023-04-27T11:34:20;100682.47;;;16.87;32.14
43818;BME280;29868;47.360;18.984;2023-04-27T11:37:02;100685.75;;;17.27;32.82
43818;BME280;29868;47.360;18.984;2023-04-27T11:39:33;100676.44;;;16.62;33.67
43818;BME280;29868;47.360;18.984;2023-04-27T11:42:28;100681.31;;;17.36;32.63
43818;BME280;29868;47.360;18.984;2023-04-27T11:44:56;100671.75;;;17.29;34.52
43818;BME280;29868;47.360;18.984;2023-04-27T11:47:24;100665.34;;;17.63;32.63
43818;BME280;29868;47.360;18.984;2023-04-27T11:49:54;100670.31;;;17.97;31.88
43818;BME280;29868;47.360;18.984;2023-04-27T11:52:21;100669.44;;;17.95;30.66
43818;BME280;29868;47.360;18.984;2023-04-27T11:54:52;100665.31;;;17.65;31.32
43818;BME280;29868;47.360;18.984;2023-04-27T11:57:24;100674.69;;;16.64;31.90
43818;BME280;29868;47.360;18.984;2023-04-27T11:59:51;100656.25;;;16.81;35.00
43818;BME280;29868;47.360;18.984;2023-04-27T12:02:17;100673.78;;;16.79;31.86
43818;BME280;29868;47.360;18.984;2023-04-27T12:04:43;100674.84;;;15.48;32.91
43818;BME280;29868;47.360;18.984;2023-04-27T12:07:08;100677.41;;;15.11;34.02
43818;BME280;29868;47.360;18.984;2023-04-27T12:09:34;100665.16;;;14.89;33.94
43818;BME280;29868;47.360;18.984;2023-04-27T12:11:59;100669.56;;;15.05;34.36
43818;BME280;29868;47.360;18.984;2023-04-27T12:14:26;100679.28;;;15.69;34.26
43818;BME280;29868;47.360;18.984;2023-04-27T12:16:52;100668.75;;;15.82;34.11
43818;BME280;29868;47.360;18.984;2023-04-27T12:19:17;100667.84;;;16.02;34.36
43818;BME280;29868;47.360;18.984;2023-04-27T12:21:42;100676.63;;;15.86;33.57
43818;BME280;29868;47.360;18.984;2023-04-27T12:24:08;100659.06;;;16.24;32.63
43818;BME280;29868;47.360;18.984;2023-04-27T12:26:33;100671.38;;;15.87;33.59
43818;BME280;29868;47.360;18.984;2023-04-27T12:28:59;100664.34;;;16.15;34.82
43818;BME280;29868;47.360;18.984;2023-04-27T12:31:25;100667.75;;;16.43;32.67
43818;BME280;29868;47.360;18.984;2023-04-27T12:33:52;100669.50;;;16.46;32.47
43818;BME280;29868;47.360;18.984;2023-04-27T12:36:18;100671.28;;;16.35;33.90
43818;BME280;29868;47.360;18.984;2023-04-27T12:38:43;100661.53;;;16.73;34.12
43818;BME280;29868;47.360;18.984;2023-04-27T12:41:09;100669.56;;;16.37;32.90
43818;BME280;29868;47.360;18.984;2023-04-27T12:43:34;100668.69;;;16.28;33.05
43818;BME280;29868;47.360;18.984;2023-04-27T12:46:02;100673.13;;;15.96;32.46
43818;BME280;29868;47.360;18.984;2023-04-27T12:48:27;100674.88;;;15.94;32.36
43818;BME280;29868;47.360;18.984;2023-04-27T12:50:53;100658.25;;;16.10;33.38
43818;BME280;29868;47.360;18.984;2023-04-27T12:53:18;100662.66;;;15.90;33.81
43818;BME280;29868;47.360;18.984;2023-04-27T12:55:43;100665.16;;;16.33;32.62
43818;BME280;29868;47.360;18.984;2023-04-27T12:58:09;100675.75;;;16.07;33.02
43818;BME280;29868;47.360;18.984;2023-04-27T13:00:35;100669.63;;;16.04;32.07
43818;BME280;29868;47.360;18.984;2023-04-27T13:03:00;100664.31;;;16.27;33.29
43818;BME280;29868;47.360;18.984;2023-04-27T13:05:26;100670.50;;;15.93;32.50
43818;BME280;29868;47.360;18.984;2023-04-27T13:07:51;100665.22;;;16.10;33.77
43818;BME280;29868;47.360;18.984;2023-04-27T13:10:17;100668.78;;;15.73;32.11
43818;BME280;29868;47.360;18.984;2023-04-27T13:12:42;100671.34;;;15.56;32.40
43818;BME280;29868;47.360;18.984;2023-04-27T13:15:08;100663.50;;;15.90;32.40
43818;BME280;29868;47.360;18.984;2023-04-27T13:17:33;100675.72;;;16.08;32.11
43818;BME280;29868;47.360;18.984;2023-04-27T13:19:59;100670.50;;;16.00;32.57
43818;BME280;29868;47.360;18.984;2023-04-27T13:22:24;100661.75;;;16.08;31.90
43818;BME280;29868;47.360;18.984;2023-04-27T13:24:50;100667.00;;;15.94;32.53
43818;BME280;29868;47.360;18.984;2023-04-27T13:27:15;100666.16;;;15.92;32.97
43818;BME280;29868;47.360;18.984;2023-04-27T13:29:41;100672.25;;;16.00;33.02
43818;BME280;29868;47.360;18.984;2023-04-27T13:32:07;100671.38;;;16.02;32.63
43818;BME280;29868;47.360;18.984;2023-04-27T13:34:32;100675.69;;;16.20;32.90
43818;BME280;29868;47.360;18.984;2023-04-27T13:36:57;100673.03;;;16.39;31.09
43818;BME280;29868;47.360;18.984;2023-04-27T13:39:23;100673.09;;;16.16;31.33
43818;BME280;29868;47.360;18.984;2023-04-27T13:41:49;100664.34;;;16.18;32.10
43818;BME280;29868;47.360;18.984;2023-04-27T13:44:15;100675.69;;;16.20;31.97
43818;BME280;29868;47.360;18.984;2023-04-27T13:46:40;100667.81;;;16.29;32.36
43818;BME280;29868;47.360;18.984;2023-04-27T13:49:06;100667.88;;;16.03;32.42
43818;BME280;29868;47.360;18.984;2023-04-27T13:51:31;100671.34;;;16.09;33.55
43818;BME280;29868;47.360;18.984;2023-04-27T13:53:57;100668.75;;;16.04;32.50
43818;BME280;29868;47.360;18.984;2023-04-27T13:56:22;100668.78;;;15.78;32.90
43818;BME280;29868;47.360;18.984;2023-04-27T13:58:48;100664.41;;;15.49;33.45
43818;BME280;29868;47.360;18.984;2023-04-27T14:01:13;100673.09;;;15.30;32.87
43818;BME280;29868;47.360;18.984;2023-04-27T14:03:38;100673.94;;;15.15;33.58
43818;BME280;29868;47.360;18.984;2023-04-27T14:06:05;100671.34;;;15.44;32.76
43818;BME280;29868;47.360;18.984;2023-04-27T14:08:31;100672.25;;;15.97;33.69
43818;BME280;29868;47.360;18.984;2023-04-27T14:10:57;100673.97;;;15.55;32.74
43818;BME280;29868;47.360;18.984;2023-04-27T14:13:22;100667.00;;;15.58;32.49
43818;BME280;29868;47.360;18.984;2023-04-27T14:15:48;100679.22;;;15.32;32.61
43818;BME280;29868;47.360;18.984;2023-04-27T14:18:13;100675.69;;;15.18;34.07
43818;BME280;29868;47.360;18.984;2023-04-27T14:20:39;100684.44;;;15.40;33.23
43818;BME280;29868;47.360;18.984;2023-04-27T14:23:06;100682.69;;;15.23;32.77
43818;BME280;29868;47.360;18.984;2023-04-27T14:25:32;100687.06;;;15.40;32.82
43818;BME280;29868;47.360;18.984;2023-04-27T14:28:03;100680.97;;;15.56;32.23
43818;BME280;29868;47.360;18.984;2023-04-27T14:30:30;100675.72;;;15.44;33.04
43818;BME280;29868;47.360;18.984;2023-04-27T14:32:55;100680.94;;;15.36;31.89
43818;BME280;29868;47.360;18.984;2023-04-27T14:35:21;100681.81;;;15.41;32.06
43818;BME280;29868;47.360;18.984;2023-04-27T14:37:48;100682.72;;;15.46;32.66
43818;BME280;29868;47.360;18.984;2023-04-27T14:40:14;100680.03;;;15.05;33.04
43818;BME280;29868;47.360;18.984;2023-04-27T14:42:40;100683.50;;;15.05;33.14
43818;BME280;29868;47.360;18.984;2023-04-27T14:45:06;100673.91;;;15.03;33.67
43818;BME280;29868;47.360;18.984;2023-04-27T14:47:31;100675.69;;;15.22;32.90
43818;BME280;29868;47.360;18.984;2023-04-27T14:49:57;100677.47;;;15.32;33.19
43818;BME280;29868;47.360;18.984;2023-04-27T14:52:22;100681.84;;;15.52;33.09
43818;BME280;29868;47.360;18.984;2023-04-27T14:54:47;100678.34;;;15.62;32.62
43818;BME280;29868;47.360;18.984;2023-04-27T14:57:13;100680.94;;;15.53;32.46
43818;BME280;29868;47.360;18.984;2023-04-27T14:59:38;100684.44;;;15.24;33.18
43818;BME280;29868;47.360;18.984;2023-04-27T15:02:03;100686.19;;;15.39;33.78
43818;BME280;29868;47.360;18.984;2023-04-27T15:04:29;100684.44;;;15.30;33.05
43818;BME280;29868;47.360;18.984;2023-04-27T15:06:55;100682.69;;;15.28;32.98
43818;BME280;29868;47.360;18.984;2023-04-27T15:09:21;100687.88;;;15.05;33.11
43818;BME280;29868;47.360;18.984;2023-04-27T15:11:46;100677.44;;;15.25;32.79
43818;BME280;29868;47.360;18.984;2023-04-27T15:14:11;100686.19;;;15.31;33.14
43818;BME280;29868;47.360;18.984;2023-04-27T15:16:37;100682.66;;;15.08;33.08
43818;BME280;29868;47.360;18.984;2023-04-27T15:19:02;100669.56;;;15.09;33.51
43818;BME280;29868;47.360;18.984;2023-04-27T15:21:29;100673.06;;;15.04;33.36
43818;BME280;29868;47.360;18.984;2023-04-27T15:23:54;100673.91;;;14.97;33.24
43818;BME280;29868;47.360;18.984;2023-04-27T15:26:20;100675.63;;;14.99;33.21
43818;BME280;29868;47.360;18.984;2023-04-27T15:28:45;100673.88;;;15.00;33.87
43818;BME280;29868;47.360;18.984;2023-04-27T15:31:11;100673.94;;;15.15;33.96
43818;BME280;29868;47.360;18.984;2023-04-27T15:33:36;100677.44;;;15.26;34.05
43818;BME280;29868;47.360;18.984;2023-04-27T15:36:01;100679.97;;;14.91;33.16
43818;BME280;29868;47.360;18.984;2023-04-27T15:38:27;100673.03;;;14.98;33.74
43818;BME280;29868;47.360;18.984;2023-04-27T15:40:53;100671.31;;;15.04;33.97
43818;BME280;29868;47.360;18.984;2023-04-27T15:43:18;100666.94;;;15.11;34.63
43818;BME280;29868;47.360;18.984;2023-04-27T15:45:45;100673.94;;;15.12;34.73
43818;BME280;29868;47.360;18.984;2023-04-27T15:48:10;100677.38;;;15.03;34.33
43818;BME280;29868;47.360;18.984;2023-04-27T15:50:36;100678.25;;;14.86;34.56
43818;BME280;29868;47.360;18.984;2023-04-27T15:53:02;100672.13;;;14.83;35.55
43818;BME280;29868;47.360;18.984;2023-04-27T15:55:27;100676.44;;;14.71;34.76
43818;BME280;29868;47.360;18.984;2023-04-27T15:57:52;100672.03;;;14.65;34.62
43818;BME280;29868;47.360;18.984;2023-04-27T16:00:18;100680.72;;;14.52;33.77
43818;BME280;29868;47.360;18.984;2023-04-27T16:02:46;100671.13;;;14.52;34.59
43818;BME280;29868;47.360;18.984;2023-04-27T16:05:12;100678.03;;;14.49;34.50
43818;BME280;29868;47.360;18.984;2023-04-27T16:07:38;100677.06;;;14.25;34.42
43818;BME280;29868;47.360;18.984;2023-04-27T16:10:06;100671.81;;;14.24;34.82
43818;BME280;29868;47.360;18.984;2023-04-27T16:12:32;100675.34;;;14.33;34.77
43818;BME280;29868;47.360;18.984;2023-04-27T16:14:57;100682.31;;;14.31;34.86
43818;BME280;29868;47.360;18.984;2023-04-27T16:17:25;100682.22;;;14.16;35.19
43818;BME280;29868;47.360;18.984;2023-04-27T16:19:50;100689.16;;;14.12;35.18
43818;BME280;29868;47.360;18.984;2023-04-27T16:22:16;100689.09;;;14.05;35.43
43818;BME280;29868;47.360;18.984;2023-04-27T16:24:42;100685.69;;;14.12;35.95
43818;BME280;29868;47.360;18.984;2023-04-27T16:27:07;100690.00;;;14.07;36.04
43818;BME280;29868;47.360;18.984;2023-04-27T16:29:33;100688.25;;;14.03;36.40
43818;BME280;29868;47.360;18.984;2023-04-27T16:31:58;100686.41;;;13.91;36.51
43818;BME280;29868;47.360;18.984;2023-04-27T16:34:24;100682.06;;;13.92;36.72
43818;BME280;29868;47.360;18.984;2023-04-27T16:36:49;100687.97;;;13.71;36.73
43818;BME280;29868;47.360;18.984;2023-04-27T16:39:15;100686.22;;;13.67;36.75
43818;BME280;29868;47.360;18.984;2023-04-27T16:41:43;100695.72;;;13.57;36.62
43818;BME280;29868;47.360;18.984;2023-04-27T16:44:09;100692.19;;;13.49;36.88
43818;BME280;29868;47.360;18.984;2023-04-27T16:46:34;100690.38;;;13.45;36.61
43818;BME280;29868;47.360;18.984;2023-04-27T16:49:00;100689.47;;;13.39;36.70
43818;BME280;29868;47.360;18.984;2023-04-27T16:51:26;100683.31;;;13.31;36.60
43818;BME280;29868;47.360;18.984;2023-04-27T16:53:52;100690.97;;;13.19;37.71
43818;BME280;29868;47.360;18.984;2023-04-27T16:56:29;100688.28;;;13.13;37.70
43818;BME280;29868;47.360;18.984;2023-04-27T16:58:55;100691.66;;;13.03;37.58
43818;BME280;29868;47.360;18.984;2023-04-27T17:01:22;100694.25;;;13.01;37.74
43818;BME280;29868;47.360;18.984;2023-04-27T17:03:48;100698.53;;;12.95;37.83
43818;BME280;29868;47.360;18.984;2023-04-27T17:06:14;100694.91;;;12.83;37.99
43818;BME280;29868;47.360;18.984;2023-04-27T17:08:39;100701.81;;;12.78;38.42
43818;BME280;29868;47.360;18.984;2023-04-27T17:11:09;100705.16;;;12.68;38.62
43818;BME280;29868;47.360;18.984;2023-04-27T17:13:35;100703.38;;;12.64;37.48
43818;BME280;29868;47.360;18.984;2023-04-27T17:16:01;100708.44;;;12.52;39.37
43818;BME280;29868;47.360;18.984;2023-04-27T17:18:28;100703.94;;;12.41;39.04
43818;BME280;29868;47.360;18.984;2023-04-27T17:20:53;100710.78;;;12.33;39.35
43818;BME280;29868;47.360;18.984;2023-04-27T17:23:19;100712.28;;;12.17;40.28
43818;BME280;29868;47.360;18.984;2023-04-27T17:25:44;100711.31;;;12.09;40.39
43818;BME280;29868;47.360;18.984;2023-04-27T17:28:09;100714.03;;;12.18;40.78
43818;BME280;29868;47.360;18.984;2023-04-27T17:30:35;100715.59;;;12.06;40.43
43818;BME280;29868;47.360;18.984;2023-04-27T17:33:02;100724.28;;;12.08;40.68
43818;BME280;29868;47.360;18.984;2023-04-27T17:35:27;100727.41;;;11.85;41.31
43818;BME280;29868;47.360;18.984;2023-04-27T17:37:53;100723.63;;;11.68;41.98
43818;BME280;29868;47.360;18.984;2023-04-27T17:40:19;100729.47;;;11.55;42.34
43818;BME280;29868;47.360;18.984;2023-04-27T17:42:45;100728.59;;;11.54;42.18
43818;BME280;29868;47.360;18.984;2023-04-27T17:45:11;100729.13;;;11.36;42.40
43818;BME280;29868;47.360;18.984;2023-04-27T17:47:36;100726.94;;;11.11;44.19
43818;BME280;29868;47.360;18.984;2023-04-27T17:50:02;100739.34;;;10.83;45.62
43818;BME280;29868;47.360;18.984;2023-04-27T17:52:27;100735.06;;;10.44;46.95
43818;BME280;29868;47.360;18.984;2023-04-27T17:54:53;100732.06;;;10.26;48.65
43818;BME280;29868;47.360;18.984;2023-04-27T17:57:19;100740.31;;;10.10;47.53
43818;BME280;29868;47.360;18.984;2023-04-27T17:59:45;100737.25;;;9.90;48.33
43818;BME280;29868;47.360;18.984;2023-04-27T18:02:11;100730.47;;;9.62;49.84
43818;BME280;29868;47.360;18.984;2023-04-27T18:04:37;100739.78;;;9.54;49.84
43818;BME280;29868;47.360;18.984;2023-04-27T18:07:02;100740.94;;;9.32;52.25
43818;BME280;29868;47.360;18.984;2023-04-27T18:09:27;100746.41;;;9.09;55.05
43818;BME280;29868;47.360;18.984;2023-04-27T18:11:53;100737.22;;;8.90;55.50
43818;BME280;29868;47.360;18.984;2023-04-27T18:14:18;100739.28;;;8.72;58.20
43818;BME280;29868;47.360;18.984;2023-04-27T18:16:44;100750.81;;;8.53;63.79
43818;BME280;29868;47.360;18.984;2023-04-27T18:19:09;100742.09;;;8.51;66.98
43818;BME280;29868;47.360;18.984;2023-04-27T18:21:35;100755.56;;;8.39;65.93
43818;BME280;29868;47.360;18.984;2023-04-27T18:24:01;100756.94;;;8.29;62.89
43818;BME280;29868;47.360;18.984;2023-04-27T18:26:26;100749.75;;;8.19;65.68
43818;BME280;29868;47.360;18.984;2023-04-27T18:28:52;100758.03;;;8.09;66.86
43818;BME280;29868;47.360;18.984;2023-04-27T18:31:18;100761.06;;;7.96;66.36
43818;BME280;29868;47.360;18.984;2023-04-27T18:33:45;100759.66;;;7.80;67.52
43818;BME280;29868;47.360;18.984;2023-04-27T18:36:10;100767.84;;;7.67;69.38
43818;BME280;29868;47.360;18.984;2023-04-27T18:38:36;100760.81;;;7.63;74.37